createdAt,value
2022-10-02T00:00:15.068Z,99994.82
2022-10-02T00:01:18.121Z,99996.14
2022-10-02T00:02:21.063Z,99995.67
2022-10-02T00:03:20.062Z,99994.52
2022-10-02T00:04:13.193Z,99991.55
2022-10-02T00:05:16.067Z,99991.65
2022-10-02T00:06:17.063Z,99988.75
2022-10-02T00:07:12.101Z,99992.49
2022-10-02T00:08:23.884Z,99991.11
2022-10-02T00:09:20.854Z,99990.39
2022-10-02T00:10:18.067Z,99990.17
2022-10-02T00:11:17.065Z,99988.73
2022-10-02T00:12:14.063Z,99990.71
2022-10-02T00:13:15.068Z,99993.46
2022-10-02T00:14:13.068Z,99992.36
2022-10-02T00:15:20.062Z,99992.52
2022-10-02T00:16:21.131Z,99996.41
2022-10-02T00:17:20.068Z,99994.68
2022-10-02T00:18:15.069Z,99998.55
2022-10-02T00:19:15.069Z,100000.83
2022-10-02T00:20:15.066Z,100000.77
2022-10-02T00:21:18.058Z,100003.50
2022-10-02T00:22:19.066Z,100007.06
2022-10-02T00:23:19.060Z,100006.59
2022-10-02T00:24:15.059Z,100007.24
2022-10-02T00:25:21.057Z,100006.85
2022-10-02T00:26:21.067Z,100011.59
2022-10-02T00:27:19.061Z,100010.54
2022-10-02T00:28:21.112Z,100016.08
2022-10-02T00:29:19.067Z,100015.25
2022-10-02T00:30:12.067Z,100016.63
2022-10-02T00:31:19.141Z,100020.48
2022-10-02T00:32:19.055Z,100020.75
2022-10-02T00:33:19.061Z,100021.51
2022-10-02T00:34:19.069Z,100021.75
2022-10-02T00:35:19.059Z,100020.67
2022-10-02T00:36:23.066Z,100022.43
2022-10-02T00:37:21.057Z,100024.24
2022-10-02T00:38:19.056Z,100025.40
2022-10-02T00:39:21.059Z,100026.55
2022-10-02T00:40:19.067Z,100024.63
2022-10-02T00:41:19.061Z,100027.30
2022-10-02T00:42:19.060Z,100030.05
2022-10-02T00:43:18.066Z,100032.71
2022-10-02T00:44:21.062Z,100032.74
2022-10-02T00:45:21.059Z,100037.19
2022-10-02T00:46:19.211Z,100038.84
2022-10-02T00:47:19.064Z,100041.45
2022-10-02T00:48:19.063Z,100039.47
2022-10-02T00:49:19.061Z,100042.27
2022-10-02T00:50:21.065Z,100041.64
2022-10-02T00:51:20.062Z,100043.40
2022-10-02T00:52:21.069Z,100048.12
2022-10-02T00:53:19.063Z,100046.55
2022-10-02T00:54:19.061Z,100050.20
2022-10-02T00:55:19.063Z,100049.21
2022-10-02T00:56:21.064Z,100050.67
2022-10-02T00:57:19.066Z,100054.24
2022-10-02T00:58:19.075Z,100055.05
2022-10-02T00:59:21.062Z,100051.43
2022-10-02T01:00:14.063Z,100049.75
2022-10-02T01:01:14.134Z,100050.24
2022-10-02T01:02:21.188Z,100052.82
2022-10-02T01:03:16.075Z,100052.55
2022-10-02T01:04:14.062Z,100055.80
2022-10-02T01:05:11.062Z,100060.73
2022-10-02T01:06:11.065Z,100062.11
2022-10-02T01:07:11.064Z,100061.64
2022-10-02T01:08:11.061Z,100062.85
2022-10-02T01:09:11.064Z,100066.09
2022-10-02T01:10:14.072Z,100069.27
2022-10-02T01:11:11.065Z,100068.01
2022-10-02T01:12:11.063Z,100064.00
2022-10-02T01:13:11.063Z,100063.46
2022-10-02T01:14:11.066Z,100065.32
2022-10-02T01:15:14.063Z,100064.06
2022-10-02T01:16:13.102Z,100068.39
2022-10-02T01:17:19.066Z,100069.82
2022-10-02T01:18:13.063Z,100072.12
2022-10-02T01:19:19.064Z,100072.13
2022-10-02T01:20:17.076Z,100074.79
2022-10-02T01:21:18.058Z,100075.01
2022-10-02T01:22:21.062Z,100074.91
2022-10-02T01:23:19.055Z,100072.36
2022-10-02T01:24:18.057Z,100069.22
2022-10-02T01:25:11.072Z,100067.83
2022-10-02T01:26:11.059Z,100063.82
2022-10-02T01:27:11.056Z,100065.23
2022-10-02T01:28:11.186Z,100067.04
2022-10-02T01:29:11.060Z,100071.10
2022-10-02T01:30:17.055Z,100072.12
2022-10-02T01:31:11.116Z,100078.02
2022-10-02T01:32:11.067Z,100079.39
2022-10-02T01:33:12.057Z,100074.26
2022-10-02T01:34:11.066Z,100076.89
2022-10-02T01:35:11.067Z,100076.18
2022-10-02T01:36:11.059Z,100075.74
2022-10-02T01:37:11.058Z,100073.14
2022-10-02T01:38:15.069Z,100074.68
2022-10-02T01:39:11.061Z,100079.09
2022-10-02T01:40:21.066Z,100082.05
2022-10-02T01:41:13.060Z,100083.97
2022-10-02T01:42:11.068Z,100087.10
2022-10-02T01:43:18.061Z,100086.83
2022-10-02T01:44:11.057Z,100085.13
2022-10-02T01:45:11.060Z,100086.69
2022-10-02T01:46:19.062Z,100085.26
2022-10-02T01:47:18.061Z,100085.26
2022-10-02T01:48:19.063Z,100084.63
2022-10-02T01:49:21.064Z,100090.12
2022-10-02T01:50:21.068Z,100092.32
2022-10-02T01:51:19.070Z,100092.04
2022-10-02T01:52:19.064Z,100092.20
2022-10-02T01:53:19.062Z,100093.66
2022-10-02T01:54:19.058Z,100093.16
2022-10-02T01:55:21.061Z,100090.03
2022-10-02T01:56:23.065Z,100091.70
2022-10-02T01:57:19.071Z,100091.37
2022-10-02T01:58:19.067Z,100089.13
2022-10-02T01:59:21.063Z,100093.02
2022-10-02T02:00:15.062Z,100093.13
2022-10-02T02:01:19.162Z,100093.56
2022-10-02T02:02:21.084Z,100093.15
2022-10-02T02:03:18.072Z,100091.02
2022-10-02T02:04:21.063Z,100095.62
2022-10-02T02:05:20.061Z,100091.07
2022-10-02T02:06:19.059Z,100089.17
2022-10-02T02:07:18.061Z,100091.67
2022-10-02T02:08:18.078Z,100093.59
2022-10-02T02:09:20.066Z,100094.33
2022-10-02T02:10:21.063Z,100096.56
2022-10-02T02:11:15.062Z,100097.38
2022-10-02T02:12:18.064Z,100099.00
2022-10-02T02:13:19.073Z,100104.90
2022-10-02T02:14:16.064Z,100107.58
2022-10-02T02:15:17.065Z,100116.53
2022-10-02T02:16:19.167Z,100114.17
2022-10-02T02:17:19.067Z,100116.64
2022-10-02T02:18:19.075Z,100117.90
2022-10-02T02:19:19.066Z,100115.70
2022-10-02T02:20:15.062Z,100117.82
2022-10-02T02:21:22.075Z,100116.23
2022-10-02T02:22:17.061Z,100118.34
2022-10-02T02:23:13.073Z,100120.59
2022-10-02T02:24:17.058Z,100121.25
2022-10-02T02:25:15.060Z,100124.71
2022-10-02T02:26:14.067Z,100129.14
2022-10-02T02:27:14.060Z,100129.51
2022-10-02T02:28:11.145Z,100123.88
2022-10-02T02:29:12.061Z,100124.10
2022-10-02T02:30:12.095Z,100127.01
2022-10-02T02:31:14.109Z,100127.73
2022-10-02T02:32:13.062Z,100128.22
2022-10-02T02:33:21.068Z,100130.31
2022-10-02T02:34:15.063Z,100130.58
2022-10-02T02:35:14.059Z,100129.59
2022-10-02T02:36:14.060Z,100130.80
2022-10-02T02:37:17.070Z,100129.93
2022-10-02T02:38:18.064Z,100128.55
2022-10-02T02:39:14.060Z,100128.63
2022-10-02T02:40:16.060Z,100129.54
2022-10-02T02:41:16.068Z,100123.69
2022-10-02T02:42:14.553Z,100123.88
2022-10-02T02:43:21.110Z,100123.86
2022-10-02T02:44:22.062Z,100122.27
2022-10-02T02:45:18.061Z,100123.17
2022-10-02T02:46:19.070Z,100123.11
2022-10-02T02:47:19.062Z,100126.79
2022-10-02T02:48:19.061Z,100129.51
2022-10-02T02:49:12.057Z,100132.03
2022-10-02T02:50:19.070Z,100136.20
2022-10-02T02:51:17.074Z,100138.39
2022-10-02T02:52:15.060Z,100139.44
2022-10-02T02:53:17.063Z,100136.14
2022-10-02T02:54:18.069Z,100138.76
2022-10-02T02:55:21.063Z,100138.10
2022-10-02T02:56:13.061Z,100140.82
2022-10-02T02:57:11.059Z,100142.13
2022-10-02T02:58:19.074Z,100138.20
2022-10-02T02:59:13.065Z,100141.69
2022-10-02T03:00:12.062Z,100141.66
2022-10-02T03:01:11.129Z,100141.83
2022-10-02T03:02:11.147Z,100144.13
2022-10-02T03:03:11.062Z,100143.09
2022-10-02T03:04:15.060Z,100140.02
2022-10-02T03:05:16.065Z,100140.37
2022-10-02T03:06:21.065Z,100139.36
2022-10-02T03:07:14.093Z,100138.69
2022-10-02T03:08:19.066Z,100139.46
2022-10-02T03:09:14.064Z,100138.23
2022-10-02T03:10:16.072Z,100140.21
2022-10-02T03:11:21.069Z,100142.27
2022-10-02T03:12:19.063Z,100145.28
2022-10-02T03:13:21.061Z,100146.82
2022-10-02T03:14:19.067Z,100145.07
2022-10-02T03:15:19.072Z,100148.74
2022-10-02T03:16:19.168Z,100146.00
2022-10-02T03:17:19.067Z,100143.67
2022-10-02T03:18:19.064Z,100143.01
2022-10-02T03:19:21.067Z,100143.39
2022-10-02T03:20:19.065Z,100144.88
2022-10-02T03:21:18.081Z,100144.11
2022-10-02T03:22:21.060Z,100144.00
2022-10-02T03:23:19.061Z,100144.84
2022-10-02T03:24:22.058Z,100139.23
2022-10-02T03:25:18.054Z,100140.62
2022-10-02T03:26:18.058Z,100139.93
2022-10-02T03:27:20.066Z,100143.80
2022-10-02T03:28:31.798Z,100144.19
2022-10-02T03:29:20.292Z,100143.64
2022-10-02T03:30:11.060Z,100147.18
2022-10-02T03:31:11.140Z,100150.71
2022-10-02T03:32:12.057Z,100153.00
2022-10-02T03:33:11.058Z,100153.05
2022-10-02T03:34:11.062Z,100158.80
2022-10-02T03:35:11.059Z,100155.16
2022-10-02T03:36:12.059Z,100160.92
2022-10-02T03:37:11.060Z,100160.98
2022-10-02T03:38:14.062Z,100161.11
2022-10-02T03:39:24.740Z,100161.69
2022-10-02T03:40:13.095Z,100162.40
2022-10-02T03:41:11.064Z,100159.99
2022-10-02T03:42:11.061Z,100159.16
2022-10-02T03:43:17.060Z,100156.86
2022-10-02T03:44:11.063Z,100155.32
2022-10-02T03:45:19.524Z,100153.73
2022-10-02T03:46:13.794Z,100156.80
2022-10-02T03:47:11.059Z,100156.12
2022-10-02T03:48:11.062Z,100161.83
2022-10-02T03:49:11.061Z,100160.79
2022-10-02T03:50:12.064Z,100162.57
2022-10-02T03:51:11.060Z,100164.30
2022-10-02T03:52:18.064Z,100168.11
2022-10-02T03:53:14.063Z,100168.71
2022-10-02T03:54:18.070Z,100169.81
2022-10-02T03:55:19.062Z,100171.35
2022-10-02T03:56:21.070Z,100170.98
2022-10-02T03:57:18.067Z,100175.21
2022-10-02T03:58:15.062Z,100176.53
2022-10-02T03:59:18.059Z,100177.24
2022-10-02T04:00:22.062Z,100177.36
2022-10-02T04:01:16.100Z,100176.23
2022-10-02T04:02:21.064Z,100179.08
2022-10-02T04:03:20.100Z,100181.27
2022-10-02T04:04:17.062Z,100185.31
2022-10-02T04:05:19.062Z,100188.68
2022-10-02T04:06:20.070Z,100189.59
2022-10-02T04:07:18.062Z,100190.71
2022-10-02T04:08:21.062Z,100189.83
2022-10-02T04:09:18.061Z,100192.80
2022-10-02T04:10:19.062Z,100191.92
2022-10-02T04:11:17.072Z,100190.30
2022-10-02T04:12:20.066Z,100190.66
2022-10-02T04:13:21.062Z,100192.88
2022-10-02T04:14:18.065Z,100193.45
2022-10-02T04:15:21.066Z,100192.03
2022-10-02T04:16:16.106Z,100195.19
2022-10-02T04:17:18.065Z,100194.96
2022-10-02T04:18:17.065Z,100193.62
2022-10-02T04:19:22.061Z,100197.43
2022-10-02T04:20:19.065Z,100200.67
2022-10-02T04:21:19.061Z,100202.46
2022-10-02T04:22:19.067Z,100206.32
2022-10-02T04:23:19.059Z,100209.83
2022-10-02T04:24:20.056Z,100210.21
2022-10-02T04:25:16.061Z,100209.67
2022-10-02T04:26:16.061Z,100214.39
2022-10-02T04:27:19.060Z,100215.16
2022-10-02T04:28:13.147Z,100214.06
2022-10-02T04:29:18.056Z,100211.64
2022-10-02T04:30:17.060Z,100210.38
2022-10-02T04:31:12.123Z,100210.71
2022-10-02T04:32:14.063Z,100208.30
2022-10-02T04:33:14.059Z,100208.63
2022-10-02T04:34:14.061Z,100211.43
2022-10-02T04:35:21.068Z,100209.07
2022-10-02T04:36:19.062Z,100210.98
2022-10-02T04:37:19.058Z,100212.63
2022-10-02T04:38:21.062Z,100211.97
2022-10-02T04:39:19.061Z,100217.52
2022-10-02T04:40:19.072Z,100219.65
2022-10-02T04:41:19.062Z,100220.81
2022-10-02T04:42:19.061Z,100224.29
2022-10-02T04:43:20.062Z,100223.14
2022-10-02T04:44:21.065Z,100220.51
2022-10-02T04:45:19.063Z,100223.84
2022-10-02T04:46:19.062Z,100220.27
2022-10-02T04:47:21.064Z,100219.83
2022-10-02T04:48:21.059Z,100218.18
2022-10-02T04:49:19.058Z,100218.51
2022-10-02T04:50:21.061Z,100211.05
2022-10-02T04:51:21.070Z,100215.27
2022-10-02T04:52:19.071Z,100214.20
2022-10-02T04:53:25.063Z,100214.82
2022-10-02T04:54:21.064Z,100213.95
2022-10-02T04:55:19.060Z,100216.66
2022-10-02T04:56:21.061Z,100222.55
2022-10-02T04:57:19.065Z,100226.45
2022-10-02T04:58:21.070Z,100232.92
2022-10-02T04:59:19.065Z,100239.16
2022-10-02T05:00:18.072Z,100238.93
2022-10-02T05:01:19.119Z,100244.80
2022-10-02T05:02:19.102Z,100245.96
2022-10-02T05:03:19.066Z,100248.54
2022-10-02T05:04:19.075Z,100251.36
2022-10-02T05:05:21.065Z,100255.14
2022-10-02T05:06:19.062Z,100255.69
2022-10-02T05:07:21.067Z,100256.51
2022-10-02T05:08:19.064Z,100257.66
2022-10-02T05:09:19.071Z,100257.55
2022-10-02T05:10:19.064Z,100261.23
2022-10-02T05:11:19.063Z,100259.86
2022-10-02T05:12:19.064Z,100264.65
2022-10-02T05:13:19.064Z,100265.75
2022-10-02T05:14:21.071Z,100263.94
2022-10-02T05:15:19.065Z,100269.91
2022-10-02T05:16:19.138Z,100266.32
2022-10-02T05:17:19.063Z,100264.12
2022-10-02T05:18:19.066Z,100266.43
2022-10-02T05:19:19.068Z,100263.46
2022-10-02T05:20:23.065Z,100264.61
2022-10-02T05:21:19.060Z,100262.20
2022-10-02T05:22:19.057Z,100262.11
2022-10-02T05:23:23.061Z,100263.48
2022-10-02T05:24:19.058Z,100264.52
2022-10-02T05:25:21.060Z,100264.36
2022-10-02T05:26:21.067Z,100264.82
2022-10-02T05:27:19.060Z,100267.21
2022-10-02T05:28:19.128Z,100268.14
2022-10-02T05:29:19.060Z,100271.82
2022-10-02T05:30:18.061Z,100273.54
2022-10-02T05:31:19.114Z,100279.35
2022-10-02T05:32:21.062Z,100276.44
2022-10-02T05:33:19.060Z,100283.24
2022-10-02T05:34:19.057Z,100287.68
2022-10-02T05:35:19.062Z,100287.48
2022-10-02T05:36:19.063Z,100291.12
2022-10-02T05:37:19.070Z,100287.51
2022-10-02T05:38:21.062Z,100286.36
2022-10-02T05:39:15.061Z,100287.31
2022-10-02T05:40:21.060Z,100285.50
2022-10-02T05:41:21.064Z,100285.12
2022-10-02T05:42:19.064Z,100288.37
2022-10-02T05:43:18.067Z,100287.71
2022-10-02T05:44:16.064Z,100291.75
2022-10-02T05:45:21.059Z,100292.42
2022-10-02T05:46:18.122Z,100292.33
2022-10-02T05:47:21.062Z,100294.67
2022-10-02T05:48:16.079Z,100296.19
2022-10-02T05:49:16.062Z,100298.02
2022-10-02T05:50:18.059Z,100298.06
2022-10-02T05:51:16.064Z,100302.15
2022-10-02T05:52:18.063Z,100304.79
2022-10-02T05:53:18.062Z,100306.67
2022-10-02T05:54:21.061Z,100305.88
2022-10-02T05:55:18.061Z,100303.42
2022-10-02T05:56:17.065Z,100305.79
2022-10-02T05:57:21.065Z,100305.46
2022-10-02T05:58:17.072Z,100305.84
2022-10-02T05:59:19.066Z,100306.28
2022-10-02T06:00:19.063Z,100308.96
2022-10-02T06:01:21.136Z,100310.85
2022-10-02T06:02:21.199Z,100311.01
2022-10-02T06:03:20.070Z,100307.39
2022-10-02T06:04:19.063Z,100307.16
2022-10-02T06:05:17.061Z,100308.82
2022-10-02T06:06:20.061Z,100309.58
2022-10-02T06:07:11.067Z,100312.50
2022-10-02T06:08:14.072Z,100314.69
2022-10-02T06:09:20.113Z,100317.98
2022-10-02T06:10:16.060Z,100321.70
2022-10-02T06:11:17.076Z,100321.93
2022-10-02T06:12:20.068Z,100324.13
2022-10-02T06:13:19.065Z,100325.72
2022-10-02T06:14:19.066Z,100327.42
2022-10-02T06:15:19.064Z,100327.82
2022-10-02T06:16:19.135Z,100334.82
2022-10-02T06:17:17.073Z,100339.15
2022-10-02T06:18:20.069Z,100338.72
2022-10-02T06:19:20.063Z,100339.43
2022-10-02T06:20:17.067Z,100346.02
2022-10-02T06:21:21.061Z,100344.00
2022-10-02T06:22:18.065Z,100344.21
2022-10-02T06:23:16.059Z,100346.41
2022-10-02T06:24:18.061Z,100343.68
2022-10-02T06:25:19.055Z,100343.52
2022-10-02T06:26:19.058Z,100345.32
2022-10-02T06:27:20.067Z,100348.60
2022-10-02T06:28:18.140Z,100346.58
2022-10-02T06:29:19.890Z,100347.84
2022-10-02T06:30:15.058Z,100349.59
2022-10-02T06:31:19.159Z,100353.38
2022-10-02T06:32:19.072Z,100359.02
2022-10-02T06:33:19.060Z,100359.04
2022-10-02T06:34:13.066Z,100361.23
2022-10-02T06:35:14.054Z,100361.16
2022-10-02T06:36:21.067Z,100364.79
2022-10-02T06:37:19.067Z,100361.84
2022-10-02T06:38:19.062Z,100361.66
2022-10-02T06:39:19.062Z,100362.81
2022-10-02T06:40:23.062Z,100368.52
2022-10-02T06:41:21.062Z,100370.16
2022-10-02T06:42:19.075Z,100369.01
2022-10-02T06:43:19.061Z,100372.50
2022-10-02T06:44:22.059Z,100371.91
2022-10-02T06:45:19.061Z,100371.91
2022-10-02T06:46:21.063Z,100372.90
2022-10-02T06:47:19.060Z,100371.53
2022-10-02T06:48:19.076Z,100370.98
2022-10-02T06:49:20.060Z,100374.27
2022-10-02T06:50:19.060Z,100373.28
2022-10-02T06:51:19.061Z,100376.57
2022-10-02T06:52:19.072Z,100382.44
2022-10-02T06:53:21.063Z,100384.89
2022-10-02T06:54:19.085Z,100385.55
2022-10-02T06:55:19.062Z,100389.61
2022-10-02T06:56:19.058Z,100392.56
2022-10-02T06:57:21.066Z,100394.16
2022-10-02T06:58:19.061Z,100393.23
2022-10-02T06:59:19.069Z,100396.12
2022-10-02T07:00:13.063Z,100397.00
2022-10-02T07:01:19.153Z,100399.41
2022-10-02T07:02:19.130Z,100400.31
2022-10-02T07:03:21.063Z,100401.79
2022-10-02T07:04:21.071Z,100401.68
2022-10-02T07:05:19.065Z,100402.54
2022-10-02T07:06:19.065Z,100404.13
2022-10-02T07:07:19.062Z,100406.55
2022-10-02T07:08:19.063Z,100409.50
2022-10-02T07:09:21.065Z,100407.07
2022-10-02T07:10:21.075Z,100409.05
2022-10-02T07:11:21.064Z,100409.71
2022-10-02T07:12:23.062Z,100407.29
2022-10-02T07:13:21.064Z,100411.26
2022-10-02T07:14:19.066Z,100412.34
2022-10-02T07:15:21.067Z,100412.02
2022-10-02T07:16:20.148Z,100411.78
2022-10-02T07:17:22.215Z,100414.91
2022-10-02T07:18:21.063Z,100418.04
2022-10-02T07:19:19.063Z,100420.06
2022-10-02T07:20:19.067Z,100421.34
2022-10-02T07:21:19.060Z,100426.04
2022-10-02T07:22:42.923Z,100429.23
2022-10-02T07:23:25.086Z,100430.81
2022-10-02T07:24:19.058Z,100434.86
2022-10-02T07:25:19.059Z,100439.20
2022-10-02T07:26:21.060Z,100444.36
2022-10-02T07:27:22.067Z,100445.98
2022-10-02T07:28:19.149Z,100448.45
2022-10-02T07:29:19.057Z,100449.99
2022-10-02T07:30:14.057Z,100453.72
2022-10-02T07:31:21.155Z,100452.89
2022-10-02T07:32:22.076Z,100453.23
2022-10-02T07:33:19.060Z,100451.23
2022-10-02T07:34:19.056Z,100456.83
2022-10-02T07:35:19.059Z,100457.09
2022-10-02T07:36:17.058Z,100462.31
2022-10-02T07:37:21.067Z,100465.54
2022-10-02T07:38:19.060Z,100461.52
2022-10-02T07:39:21.061Z,100464.36
2022-10-02T07:40:21.138Z,100467.98
2022-10-02T07:41:19.062Z,100465.84
2022-10-02T07:42:21.062Z,100466.55
2022-10-02T07:43:21.068Z,100468.84
2022-10-02T07:44:19.061Z,100468.83
2022-10-02T07:45:21.059Z,100470.04
2022-10-02T07:46:21.056Z,100475.14
2022-10-02T07:47:19.060Z,100476.52
2022-10-02T07:48:19.063Z,100478.88
2022-10-02T07:49:21.068Z,100482.02
2022-10-02T07:50:19.062Z,100482.91
2022-10-02T07:51:21.112Z,100485.58
2022-10-02T07:52:21.061Z,100485.52
2022-10-02T07:53:21.057Z,100488.26
2022-10-02T07:54:19.061Z,100490.94
2022-10-02T07:55:19.069Z,100492.75
2022-10-02T07:56:13.072Z,100494.04
2022-10-02T07:57:19.059Z,100493.62
2022-10-02T07:58:17.064Z,100494.06
2022-10-02T07:59:15.064Z,100495.20
2022-10-02T08:00:18.062Z,100495.42
2022-10-02T08:01:18.062Z,100492.71
2022-10-02T08:02:19.085Z,100491.29
2022-10-02T08:03:18.110Z,100490.76
2022-10-02T08:04:19.064Z,100488.72
2022-10-02T08:05:19.063Z,100488.92
2022-10-02T08:06:11.060Z,100487.99
2022-10-02T08:07:11.062Z,100489.66
2022-10-02T08:08:21.065Z,100492.67
2022-10-02T08:09:22.066Z,100494.17
2022-10-02T08:10:12.060Z,100496.66
2022-10-02T08:11:16.064Z,100500.34
2022-10-02T08:12:21.071Z,100502.13
2022-10-02T08:13:17.065Z,100502.66
2022-10-02T08:14:16.061Z,100509.79
2022-10-02T08:15:16.083Z,100514.70
2022-10-02T08:16:12.127Z,100517.66
2022-10-02T08:17:19.066Z,100520.94
2022-10-02T08:18:33.786Z,100527.00
2022-10-02T08:19:20.073Z,100529.09
2022-10-02T08:20:21.071Z,100530.79
2022-10-02T08:21:14.066Z,100532.20
2022-10-02T08:22:21.057Z,100533.68
2022-10-02T08:23:19.058Z,100531.46
2022-10-02T08:24:15.061Z,100529.03
2022-10-02T08:25:20.069Z,100535.08
2022-10-02T08:26:21.072Z,100532.28
2022-10-02T08:27:19.060Z,100535.19
2022-10-02T08:28:19.089Z,100533.10
2022-10-02T08:29:19.059Z,100537.42
2022-10-02T08:30:13.061Z,100535.68
2022-10-02T08:31:11.117Z,100539.32
2022-10-02T08:32:11.062Z,100544.21
2022-10-02T08:33:17.064Z,100552.28
2022-10-02T08:34:18.062Z,100556.46
2022-10-02T08:35:15.069Z,100554.53
2022-10-02T08:36:21.059Z,100559.07
2022-10-02T08:37:21.061Z,100558.44
2022-10-02T08:38:24.062Z,100562.04
2022-10-02T08:39:19.060Z,100560.25
2022-10-02T08:40:21.068Z,100560.86
2022-10-02T08:41:19.063Z,100562.84
2022-10-02T08:42:19.059Z,100560.58
2022-10-02T08:43:20.059Z,100559.09
2022-10-02T08:44:19.060Z,100560.73
2022-10-02T08:45:19.069Z,100560.21
2022-10-02T08:46:19.063Z,100560.01
2022-10-02T08:47:19.060Z,100560.98
2022-10-02T08:48:21.064Z,100559.68
2022-10-02T08:49:19.062Z,100560.56
2022-10-02T08:50:19.071Z,100563.61
2022-10-02T08:51:19.067Z,100559.74
2022-10-02T08:52:19.061Z,100565.12
2022-10-02T08:53:21.063Z,100562.82
2022-10-02T08:54:19.066Z,100564.36
2022-10-02T08:55:21.070Z,100562.26
2022-10-02T08:56:21.064Z,100567.19
2022-10-02T08:57:19.061Z,100568.65
2022-10-02T08:58:21.062Z,100570.03
2022-10-02T08:59:19.088Z,100567.28
2022-10-02T09:00:19.068Z,100565.54
2022-10-02T09:01:19.119Z,100567.59
2022-10-02T09:02:21.080Z,100564.30
2022-10-02T09:03:19.061Z,100564.21
2022-10-02T09:04:19.066Z,100565.43
2022-10-02T09:05:19.066Z,100566.99
2022-10-02T09:06:19.079Z,100563.80
2022-10-02T09:07:19.065Z,100564.29
2022-10-02T09:08:20.062Z,100568.88
2022-10-02T09:09:19.065Z,100570.95
2022-10-02T09:10:19.066Z,100571.55
2022-10-02T09:11:21.071Z,100570.89
2022-10-02T09:12:19.073Z,100570.68
2022-10-02T09:13:19.068Z,100575.57
2022-10-02T09:14:22.063Z,100577.29
2022-10-02T09:15:19.065Z,100579.36
2022-10-02T09:16:11.097Z,100576.84
2022-10-02T09:17:19.074Z,100574.84
2022-10-02T09:18:19.066Z,100574.60
2022-10-02T09:19:19.067Z,100573.76
2022-10-02T09:20:19.069Z,100574.26
2022-10-02T09:21:18.060Z,100574.25
2022-10-02T09:22:19.060Z,100579.78
2022-10-02T09:23:19.060Z,100572.29
2022-10-02T09:24:21.058Z,100575.87
2022-10-02T09:25:23.060Z,100579.09
2022-10-02T09:26:21.059Z,100575.91
2022-10-02T09:27:23.062Z,100581.35
2022-10-02T09:28:19.145Z,100581.80
2022-10-02T09:29:21.060Z,100582.91
2022-10-02T09:30:19.064Z,100585.60
2022-10-02T09:31:19.167Z,100584.22
2022-10-02T09:32:19.064Z,100587.61
2022-10-02T09:33:19.067Z,100587.95
2022-10-02T09:34:19.062Z,100589.06
2022-10-02T09:35:21.062Z,100586.81
2022-10-02T09:36:19.061Z,100590.90
2022-10-02T09:37:19.062Z,100593.70
2022-10-02T09:38:19.069Z,100594.82
2022-10-02T09:39:19.063Z,100598.14
2022-10-02T09:40:19.064Z,100598.23
2022-10-02T09:41:19.062Z,100600.02
2022-10-02T09:42:19.062Z,100606.98
2022-10-02T09:43:21.065Z,100608.07
2022-10-02T09:44:19.083Z,100606.55
2022-10-02T09:45:19.100Z,100608.05
2022-10-02T09:46:19.133Z,100610.22
2022-10-02T09:47:21.058Z,100607.33
2022-10-02T09:48:19.063Z,100608.17
2022-10-02T09:49:20.072Z,100605.93
2022-10-02T09:50:19.064Z,100609.97
2022-10-02T09:51:19.060Z,100605.27
2022-10-02T09:52:21.062Z,100605.64
2022-10-02T09:53:19.066Z,100607.14
2022-10-02T09:54:21.065Z,100609.09
2022-10-02T09:55:19.075Z,100608.23
2022-10-02T09:56:19.064Z,100606.08
2022-10-02T09:57:19.062Z,100610.33
2022-10-02T09:58:19.065Z,100609.87
2022-10-02T09:59:21.066Z,100611.89
2022-10-02T10:00:21.075Z,100608.97
2022-10-02T10:01:19.125Z,100616.32
2022-10-02T10:02:22.318Z,100614.23
2022-10-02T10:03:23.088Z,100617.98
2022-10-02T10:04:20.065Z,100619.34
2022-10-02T10:05:20.066Z,100618.96
2022-10-02T10:06:21.073Z,100617.47
2022-10-02T10:07:21.064Z,100620.39
2022-10-02T10:08:19.065Z,100621.56
2022-10-02T10:09:19.065Z,100621.68
2022-10-02T10:10:19.066Z,100623.46
2022-10-02T10:11:19.071Z,100624.97
2022-10-02T10:12:21.073Z,100626.51
2022-10-02T10:13:19.068Z,100634.72
2022-10-02T10:14:19.064Z,100641.92
2022-10-02T10:15:21.072Z,100641.78
2022-10-02T10:16:21.086Z,100645.61
2022-10-02T10:17:23.079Z,100651.80
2022-10-02T10:18:19.068Z,100646.96
2022-10-02T10:19:19.069Z,100650.57
2022-10-02T10:20:19.065Z,100652.49
2022-10-02T10:21:19.061Z,100647.00
2022-10-02T10:22:19.058Z,100656.76
2022-10-02T10:23:19.065Z,100657.11
2022-10-02T10:24:21.059Z,100656.57
2022-10-02T10:25:19.061Z,100662.99
2022-10-02T10:26:19.058Z,100657.36
2022-10-02T10:27:19.060Z,100656.19
2022-10-02T10:28:19.111Z,100658.20
2022-10-02T10:29:19.061Z,100657.36
2022-10-02T10:30:19.062Z,100659.62
2022-10-02T10:31:19.124Z,100661.64
2022-10-02T10:32:19.060Z,100661.52
2022-10-02T10:33:19.062Z,100660.49
2022-10-02T10:34:19.062Z,100657.21
2022-10-02T10:35:19.061Z,100661.41
2022-10-02T10:36:19.059Z,100652.44
2022-10-02T10:37:23.061Z,100659.84
2022-10-02T10:38:25.063Z,100660.44
2022-10-02T10:39:19.068Z,100663.95
2022-10-02T10:40:19.062Z,100665.49
2022-10-02T10:41:21.059Z,100661.43
2022-10-02T10:42:21.062Z,100663.71
2022-10-02T10:43:19.064Z,100660.36
2022-10-02T10:44:21.061Z,100659.06
2022-10-02T10:45:19.069Z,100665.42
2022-10-02T10:46:19.207Z,100669.86
2022-10-02T10:47:21.061Z,100665.16
2022-10-02T10:48:19.058Z,100669.64
2022-10-02T10:49:19.061Z,100672.50
2022-10-02T10:50:19.070Z,100674.56
2022-10-02T10:51:19.063Z,100678.47
2022-10-02T10:52:19.065Z,100679.25
2022-10-02T10:53:19.062Z,100677.21
2022-10-02T10:54:20.064Z,100677.03
2022-10-02T10:55:19.067Z,100683.39
2022-10-02T10:56:21.072Z,100681.27
2022-10-02T10:57:22.063Z,100682.05
2022-10-02T10:58:19.062Z,100682.90
2022-10-02T10:59:24.392Z,100684.77
2022-10-02T11:00:21.071Z,100689.84
2022-10-02T11:01:17.077Z,100689.55
2022-10-02T11:02:19.138Z,100687.53
2022-10-02T11:03:19.063Z,100689.90
2022-10-02T11:04:23.061Z,100694.81
2022-10-02T11:05:19.066Z,100695.07
2022-10-02T11:06:19.072Z,100699.23
2022-10-02T11:07:21.066Z,100701.54
2022-10-02T11:08:19.062Z,100703.27
2022-10-02T11:09:19.063Z,100706.95
2022-10-02T11:10:21.064Z,100705.98
2022-10-02T11:11:19.074Z,100707.52
2022-10-02T11:12:21.067Z,100706.58
2022-10-02T11:13:19.068Z,100705.12
2022-10-02T11:14:19.062Z,100707.90
2022-10-02T11:15:19.067Z,100707.66
2022-10-02T11:16:23.104Z,100707.20
2022-10-02T11:17:21.074Z,100706.54
2022-10-02T11:18:21.072Z,100711.80
2022-10-02T11:19:21.473Z,100709.20
2022-10-02T11:20:19.066Z,100713.44
2022-10-02T11:21:19.058Z,100713.63
2022-10-02T11:22:23.061Z,100718.33
2022-10-02T11:23:19.066Z,100718.38
2022-10-02T11:24:19.058Z,100721.92